Ayer, MA

6:03 PM EDT on August 27, 2014 (GMT -0400)
Ayer - Rt. 2A | Change Station
CLOSE
Current Station
Personal Weather Station
Location: Ayer, MA
Elevation: 331 ft
Nearby Weather Stations

Elev 331 ft 42.55 °N, 71.56 °W | Updated 26 seconds ago

Partly Cloudy
Partly Cloudy
79.9 °F
Feels Like 83 °F
N
3.0
Wind Variable Wind from SW
Gusts 6.0 mph

Today
High -- | Low -- °F
--% Chance of Precip.
Yesterday
High -- | Low -- °F
Precip. -- in
6:05 AM 7:28 PM
Waxing Crescent, 5% visible
Pressure 29.87 in
Visibility 10.0 miles
Clouds Clear
Heat Index 83 °F
Dew Point 70 °F
Humidity 72%
Rainfall 0.00 in
Snow Depth Not available.
UV 1 out of 12
Pollen 9.90 out of 12
Air Quality Not available.
Flu Activity Not available.
METAR KFIT 272152Z AUTO 21007KT 10SM VCTS CLR 28/21 A2988 RMK AO2 LTG DSNT S AND SW SLP114 T02830206

More Conditions Fewer Conditions

Pressure 29.87 in
Visibility 10.0 miles
Clouds Clear
Heat Index 83 °F
Dew Point 70 °F
Humidity 72%
Rainfall 0.00 in
Snow Depth Not available.
UV 1 out of 12
Pollen 9.90 out of 12
Air Quality Not available.
Flu Activity Not available.
METAR KFIT 272152Z AUTO 21007KT 10SM VCTS CLR 28/21 A2988 RMK AO2 LTG DSNT S AND SW SLP114 T02830206

More Conditions Fewer Conditions

10-Day Weather Forecast

Almanac

Astronomy

Aug. 27, 2014 Rise Set
Actual Time 6:05 AM EDT 7:28 PM EDT
Civil Twilight 5:36 AM EDT 7:58 PM EDT
Nautical Twilight 5:01 AM EDT 8:33 PM EDT
Astronomical Twilight 4:23 AM EDT 9:10 PM EDT
Moon 8:02 AM EDT 8:15 PM EDT
Length of Visible Light 14h 21m
Length of Day
13h 23m
Tomorrow will be 2m 44s shorter.
Waxing Crescent, 5% of the Moon is Illuminated
Today
Waxing Crescent
Sep 2
First Quarter
Sep 8
Full
Sep 15
Last Quarter
Sep 24
New

Today's Extremes

State Highs State Lows

Community

WunderPhotos

Upload Photos

1,747,798 photos uploaded!

Nearby

Air Quality

  Air Quality AQ Index Pollutant
Wednesday Good
PM2.5
Thursday Good
PM2.5
Thursday Good
OZONE

Snow Depth

Station Depth Elevation
No new snow has been reported.

Earthquake Activity

City Distance Mag. Time & Date
No recent earthquake activity has been reported nearby.
Minimum magnitude displayed is 2.5.

Coastal Water Temperatures

Place Temperature
Boston, MA 69.1 °F
Providence, RI 73.0 °F
Fall River, MA 73.9 °F
Conimicut Light, RI 72.0 °F

Nearby Weather Stations